PENO2: Grand Lake O' The Cherokees, Pensacola Dm

Data processed at Sat Mar 10 2018 23:36


All information presented herein is the property of the government of the United States of America and may be revised or deleted at any time without prior notice.
Dissemination of this information without the expressed written consent of the Public Affairs Office, Tulsa District U.S. Army Corps of Engineers is strictly prohibited.
These data are gathered electronically and, as presented, have not undergone any form of quality control. These data are not guaranteed to be valid or correct.
Go to home page.
Go to station list.

Upstream stations:

Downstream station:
Previous Day
Next Day
Current Day
    
SHEF ID:       PENO2     Lake O' the Cherokees at Langley
STATION TYPE:  RESERVOIR

               PRECIP ELEVATION   STORAGE    INFLOW   RELEASE  AIR-TEMP  WIND-DIRWIND-SPEED REL-HUMID SOLAR-RAD   VOLTAGE  BAT-LOAD
                   in        ft     ac-ft       cfs       cfs         F       deg       mph         %      W/m2      volt      volt
              Ccp-Rev   Ccp-Rev   Ccp-Rev  Regi-Rev  Regi-Rev   Ccp-Rev   Ccp-Rev   Ccp-Rev   Ccp-Rev   Ccp-Rev   Ccp-Rev   Ccp-Rev
(US/Central)
03/08 00:00      0.00    743.80   1465720       134     11515     36.39    138.93      0.91     62.05      0.00     12.56     12.25
03/08 01:00      0.00    743.78   1464902       163     11292     35.11    127.27      1.64     62.39      0.00     12.56     12.25
03/08 02:00      0.00    743.78   1464902       193     11404     36.70     44.77      2.82     56.52      0.00     12.55     12.25
03/08 03:00      0.00    743.77   1464493       192     11397     36.99     17.55      3.35     52.67      0.00     12.55     12.25
03/08 04:00      0.00    743.76   1464084       222     11406     34.29     61.40      1.75     65.59      0.00     12.54     12.25
03/08 05:00      0.00    743.75   1463675       222     11289     36.07    348.34      6.14     53.70      0.00     12.54     12.25
03/08 06:00      0.00    743.74   1463266       190     11408     34.68     10.55      5.35     60.19      0.00     12.53     12.25
03/08 07:00      0.00    743.74   1463266       152     11412     33.33     34.18      3.97     66.59      1.61     12.53     12.17
03/08 08:00      0.01    743.71   1462039       114     11412     34.74     33.49      4.14     63.13    131.66     12.53     12.17
03/08 09:00      0.00    743.70   1461630        75     11296     36.09     17.67      2.86     62.13    341.66     13.06     12.25
03/08 10:00      0.00    743.69   1461221        74     11411     37.65     20.77      4.15     57.60    531.16     13.45     13.21
03/08 11:00      0.00    743.65   1459585        77     11414     38.93    346.31      3.32     47.76    679.88     13.48     13.13
03/08 12:00      0.00    743.65   1459585       115     11305     41.00    326.56      2.52     41.17    761.96     13.48     13.05
03/08 13:00      0.00    743.63   1458767       163     11415     44.01    351.83      2.81     38.66    778.13     13.52     12.97
03/08 14:00      0.00    743.62   1458358       163     11414     45.91    351.73      5.12     37.85    708.61     13.50     12.97
03/08 15:00      0.00    743.62   1458358       164     11306     48.15    348.23      5.46     40.28    569.92     13.53     12.97
03/08 16:00      0.00    743.59   1457131       165     11523     50.00    347.55      3.93     45.32    432.52     14.56     12.97
03/08 17:00      0.00    743.59   1457131       165     11528     50.79    351.51      3.29     50.52    216.65     12.92     12.65
03/08 18:00      0.00    743.57   1456313       120     11528     51.69    317.25      1.09     39.93    104.57     12.89     12.65
03/08 19:00      0.00    743.55   1455495       121     11304     51.22    312.84      0.41     36.46      0.51     12.86     12.57
03/08 20:00      0.00    743.55   1455495        53     11413     48.33     46.80      0.02     42.78      0.00     12.84     12.57
03/08 21:00      0.00    743.54   1455086        44     11305     46.92    123.04      0.61     43.87      0.00     12.83     12.57
03/08 22:00      0.00    743.51   1453859         6     11538     49.24    147.94      2.10     35.11      0.00     12.81     12.57
03/08 23:00      0.00    743.49   1453041         3     11313     50.23    150.14      2.25     34.20      0.00     12.80     12.57